sensor_id;sensor_type;location;lat;lon;timestamp;P1;durP1;ratioP1;P2;durP2;ratioP2
73670;SDS011;61968;48.178;11.566;2023-08-06T00:00:45;2.58;;;1.90;;
73670;SDS011;61968;48.178;11.566;2023-08-06T00:03:12;2.53;;;2.00;;
73670;SDS011;61968;48.178;11.566;2023-08-06T00:05:41;2.50;;;2.30;;
73670;SDS011;61968;48.178;11.566;2023-08-06T00:08:09;4.20;;;2.15;;
73670;SDS011;61968;48.178;11.566;2023-08-06T00:10:35;7.53;;;2.42;;
73670;SDS011;61968;48.178;11.566;2023-08-06T00:13:02;3.53;;;1.88;;
73670;SDS011;61968;48.178;11.566;2023-08-06T00:15:28;2.42;;;1.90;;
73670;SDS011;61968;48.178;11.566;2023-08-06T00:17:55;3.50;;;2.00;;
73670;SDS011;61968;48.178;11.566;2023-08-06T00:20:21;4.45;;;2.55;;
73670;SDS011;61968;48.178;11.566;2023-08-06T00:22:48;2.58;;;2.38;;
73670;SDS011;61968;48.178;11.566;2023-08-06T00:25:16;2.97;;;1.70;;
73670;SDS011;61968;48.178;11.566;2023-08-06T00:27:42;2.20;;;2.03;;
73670;SDS011;61968;48.178;11.566;2023-08-06T00:30:09;3.00;;;1.85;;
73670;SDS011;61968;48.178;11.566;2023-08-06T00:32:36;3.42;;;2.53;;
73670;SDS011;61968;48.178;11.566;2023-08-06T00:35:03;7.45;;;2.28;;
73670;SDS011;61968;48.178;11.566;2023-08-06T00:37:30;2.15;;;1.85;;
73670;SDS011;61968;48.178;11.566;2023-08-06T00:39:56;3.15;;;1.92;;
73670;SDS011;61968;48.178;11.566;2023-08-06T00:42:24;1.90;;;1.42;;
73670;SDS011;61968;48.178;11.566;2023-08-06T00:44:51;2.10;;;1.90;;
73670;SDS011;61968;48.178;11.566;2023-08-06T00:47:17;1.80;;;1.70;;
73670;SDS011;61968;48.178;11.566;2023-08-06T00:49:44;1.80;;;1.60;;
73670;SDS011;61968;48.178;11.566;2023-08-06T00:52:10;1.60;;;1.50;;
73670;SDS011;61968;48.178;11.566;2023-08-06T00:54:38;1.83;;;1.50;;
73670;SDS011;61968;48.178;11.566;2023-08-06T00:57:04;1.58;;;1.48;;
73670;SDS011;61968;48.178;11.566;2023-08-06T00:59:34;1.88;;;1.42;;
73670;SDS011;61968;48.178;11.566;2023-08-06T01:02:01;1.77;;;1.67;;
73670;SDS011;61968;48.178;11.566;2023-08-06T01:04:28;3.58;;;2.10;;
73670;SDS011;61968;48.178;11.566;2023-08-06T01:06:56;3.30;;;1.95;;
73670;SDS011;61968;48.178;11.566;2023-08-06T01:09:32;2.58;;;2.22;;
73670;SDS011;61968;48.178;11.566;2023-08-06T01:12:09;2.67;;;1.60;;
73670;SDS011;61968;48.178;11.566;2023-08-06T01:14:47;1.70;;;1.60;;
73670;SDS011;61968;48.178;11.566;2023-08-06T01:17:20;2.05;;;1.77;;
73670;SDS011;61968;48.178;11.566;2023-08-06T01:19:46;1.88;;;1.73;;
73670;SDS011;61968;48.178;11.566;2023-08-06T01:22:14;2.20;;;1.42;;
73670;SDS011;61968;48.178;11.566;2023-08-06T01:24:41;3.35;;;1.90;;
73670;SDS011;61968;48.178;11.566;2023-08-06T01:27:17;2.00;;;1.80;;
73670;SDS011;61968;48.178;11.566;2023-08-06T01:29:52;2.53;;;1.77;;
73670;SDS011;61968;48.178;11.566;2023-08-06T01:32:23;2.70;;;2.08;;
73670;SDS011;61968;48.178;11.566;2023-08-06T01:34:51;2.17;;;2.08;;
73670;SDS011;61968;48.178;11.566;2023-08-06T01:37:21;2.25;;;2.05;;
73670;SDS011;61968;48.178;11.566;2023-08-06T01:39:48;3.30;;;2.40;;
73670;SDS011;61968;48.178;11.566;2023-08-06T01:42:15;2.47;;;1.90;;
73670;SDS011;61968;48.178;11.566;2023-08-06T01:44:41;3.72;;;2.00;;
73670;SDS011;61968;48.178;11.566;2023-08-06T01:47:08;3.05;;;1.90;;
73670;SDS011;61968;48.178;11.566;2023-08-06T01:49:34;2.03;;;1.92;;
73670;SDS011;61968;48.178;11.566;2023-08-06T01:52:01;6.20;;;2.30;;
73670;SDS011;61968;48.178;11.566;2023-08-06T01:54:29;2.80;;;2.30;;
73670;SDS011;61968;48.178;11.566;2023-08-06T01:56:55;2.40;;;2.20;;
73670;SDS011;61968;48.178;11.566;2023-08-06T01:59:23;2.63;;;2.13;;
73670;SDS011;61968;48.178;11.566;2023-08-06T02:01:49;2.33;;;1.92;;
73670;SDS011;61968;48.178;11.566;2023-08-06T02:04:16;5.43;;;1.70;;
73670;SDS011;61968;48.178;11.566;2023-08-06T02:06:42;1.90;;;1.73;;
73670;SDS011;61968;48.178;11.566;2023-08-06T02:09:09;2.17;;;1.95;;
73670;SDS011;61968;48.178;11.566;2023-08-06T02:11:37;2.33;;;2.13;;
73670;SDS011;61968;48.178;11.566;2023-08-06T02:14:03;1.80;;;1.70;;
73670;SDS011;61968;48.178;11.566;2023-08-06T02:16:30;2.10;;;1.90;;
73670;SDS011;61968;48.178;11.566;2023-08-06T02:18:56;2.15;;;1.90;;
73670;SDS011;61968;48.178;11.566;2023-08-06T02:21:23;2.17;;;1.58;;
73670;SDS011;61968;48.178;11.566;2023-08-06T02:23:49;1.58;;;1.48;;
73670;SDS011;61968;48.178;11.566;2023-08-06T02:26:16;1.83;;;1.55;;
73670;SDS011;61968;48.178;11.566;2023-08-06T02:28:44;1.50;;;1.40;;
73670;SDS011;61968;48.178;11.566;2023-08-06T02:31:10;2.95;;;2.00;;
73670;SDS011;61968;48.178;11.566;2023-08-06T02:33:37;1.67;;;1.33;;
73670;SDS011;61968;48.178;11.566;2023-08-06T02:36:04;2.38;;;1.70;;
73670;SDS011;61968;48.178;11.566;2023-08-06T02:38:31;4.40;;;2.35;;
73670;SDS011;61968;48.178;11.566;2023-08-06T02:40:57;2.00;;;1.25;;
73670;SDS011;61968;48.178;11.566;2023-08-06T02:43:24;1.58;;;1.40;;
73670;SDS011;61968;48.178;11.566;2023-08-06T02:45:52;1.60;;;1.35;;
73670;SDS011;61968;48.178;11.566;2023-08-06T02:48:18;2.13;;;1.70;;
73670;SDS011;61968;48.178;11.566;2023-08-06T02:50:45;1.58;;;1.48;;
73670;SDS011;61968;48.178;11.566;2023-08-06T02:53:11;2.47;;;1.52;;
73670;SDS011;61968;48.178;11.566;2023-08-06T02:55:38;3.15;;;1.42;;
73670;SDS011;61968;48.178;11.566;2023-08-06T02:58:11;2.17;;;1.80;;
73670;SDS011;61968;48.178;11.566;2023-08-06T03:00:37;1.67;;;1.58;;
73670;SDS011;61968;48.178;11.566;2023-08-06T03:03:05;2.58;;;1.80;;
73670;SDS011;61968;48.178;11.566;2023-08-06T03:05:32;1.55;;;1.33;;
73670;SDS011;61968;48.178;11.566;2023-08-06T03:07:58;4.03;;;1.52;;
73670;SDS011;61968;48.178;11.566;2023-08-06T03:10:25;1.40;;;1.30;;
73670;SDS011;61968;48.178;11.566;2023-08-06T03:12:51;5.78;;;1.60;;
73670;SDS011;61968;48.178;11.566;2023-08-06T03:15:17;1.92;;;1.27;;
73670;SDS011;61968;48.178;11.566;2023-08-06T03:17:44;1.50;;;1.40;;
73670;SDS011;61968;48.178;11.566;2023-08-06T03:20:12;2.25;;;1.45;;
73670;SDS011;61968;48.178;11.566;2023-08-06T03:22:38;1.33;;;1.23;;
73670;SDS011;61968;48.178;11.566;2023-08-06T03:25:05;1.40;;;1.10;;
73670;SDS011;61968;48.178;11.566;2023-08-06T03:27:32;2.08;;;1.83;;
73670;SDS011;61968;48.178;11.566;2023-08-06T03:29:58;1.90;;;1.50;;
73670;SDS011;61968;48.178;11.566;2023-08-06T03:32:26;1.40;;;1.17;;
73670;SDS011;61968;48.178;11.566;2023-08-06T03:34:52;1.20;;;1.02;;
73670;SDS011;61968;48.178;11.566;2023-08-06T03:37:20;1.15;;;1.08;;
73670;SDS011;61968;48.178;11.566;2023-08-06T03:39:46;1.48;;;1.38;;
73670;SDS011;61968;48.178;11.566;2023-08-06T03:42:13;2.67;;;1.40;;
73670;SDS011;61968;48.178;11.566;2023-08-06T03:44:39;1.33;;;1.23;;
73670;SDS011;61968;48.178;11.566;2023-08-06T03:47:06;34.88;;;20.50;;
73670;SDS011;61968;48.178;11.566;2023-08-06T03:49:32;21.50;;;13.40;;
73670;SDS011;61968;48.178;11.566;2023-08-06T03:51:59;2.75;;;2.15;;
73670;SDS011;61968;48.178;11.566;2023-08-06T03:54:27;3.28;;;2.05;;
73670;SDS011;61968;48.178;11.566;2023-08-06T03:56:54;4.70;;;2.65;;
73670;SDS011;61968;48.178;11.566;2023-08-06T03:59:20;2.95;;;2.70;;
73670;SDS011;61968;48.178;11.566;2023-08-06T04:01:47;5.70;;;2.45;;
73670;SDS011;61968;48.178;11.566;2023-08-06T04:04:13;3.20;;;2.30;;
73670;SDS011;61968;48.178;11.566;2023-08-06T04:06:40;2.17;;;1.60;;
73670;SDS011;61968;48.178;11.566;2023-08-06T04:09:06;3.58;;;1.55;;
73670;SDS011;61968;48.178;11.566;2023-08-06T04:11:34;3.00;;;1.40;;
73670;SDS011;61968;48.178;11.566;2023-08-06T04:14:00;2.35;;;1.23;;
73670;SDS011;61968;48.178;11.566;2023-08-06T04:16:27;1.08;;;1.02;;
73670;SDS011;61968;48.178;11.566;2023-08-06T04:18:54;1.67;;;1.35;;
73670;SDS011;61968;48.178;11.566;2023-08-06T04:21:20;1.92;;;1.10;;
73670;SDS011;61968;48.178;11.566;2023-08-06T04:23:47;3.03;;;1.30;;
73670;SDS011;61968;48.178;11.566;2023-08-06T04:26:13;9.63;;;2.58;;
73670;SDS011;61968;48.178;11.566;2023-08-06T04:28:41;1.35;;;1.25;;
73670;SDS011;61968;48.178;11.566;2023-08-06T04:31:07;1.35;;;1.20;;
73670;SDS011;61968;48.178;11.566;2023-08-06T04:33:34;1.55;;;1.10;;
73670;SDS011;61968;48.178;11.566;2023-08-06T04:36:00;1.13;;;1.00;;
73670;SDS011;61968;48.178;11.566;2023-08-06T04:38:27;3.20;;;1.40;;
73670;SDS011;61968;48.178;11.566;2023-08-06T04:40:53;1.77;;;1.40;;
73670;SDS011;61968;48.178;11.566;2023-08-06T04:43:20;1.50;;;1.35;;
73670;SDS011;61968;48.178;11.566;2023-08-06T04:45:48;2.67;;;2.28;;
73670;SDS011;61968;48.178;11.566;2023-08-06T04:48:15;0.90;;;0.90;;
73670;SDS011;61968;48.178;11.566;2023-08-06T04:50:43;0.80;;;0.80;;
73670;SDS011;61968;48.178;11.566;2023-08-06T04:53:10;2.53;;;1.10;;
73670;SDS011;61968;48.178;11.566;2023-08-06T04:55:36;3.13;;;1.38;;
73670;SDS011;61968;48.178;11.566;2023-08-06T04:58:03;1.63;;;1.50;;
73670;SDS011;61968;48.178;11.566;2023-08-06T05:00:30;2.55;;;1.58;;
73670;SDS011;61968;48.178;11.566;2023-08-06T05:02:59;2.03;;;1.08;;
73670;SDS011;61968;48.178;11.566;2023-08-06T05:05:25;1.35;;;0.98;;
73670;SDS011;61968;48.178;11.566;2023-08-06T05:07:53;1.33;;;1.10;;
73670;SDS011;61968;48.178;11.566;2023-08-06T05:10:21;2.72;;;1.48;;
73670;SDS011;61968;48.178;11.566;2023-08-06T05:12:50;1.52;;;1.10;;
73670;SDS011;61968;48.178;11.566;2023-08-06T05:15:17;1.42;;;1.33;;
73670;SDS011;61968;48.178;11.566;2023-08-06T05:17:43;2.25;;;0.98;;
73670;SDS011;61968;48.178;11.566;2023-08-06T05:20:12;1.80;;;1.35;;
73670;SDS011;61968;48.178;11.566;2023-08-06T05:22:38;1.48;;;1.38;;
73670;SDS011;61968;48.178;11.566;2023-08-06T05:25:05;1.48;;;1.00;;
73670;SDS011;61968;48.178;11.566;2023-08-06T05:27:32;2.28;;;1.20;;
73670;SDS011;61968;48.178;11.566;2023-08-06T05:29:59;1.58;;;1.17;;
73670;SDS011;61968;48.178;11.566;2023-08-06T05:32:25;1.13;;;1.10;;
73670;SDS011;61968;48.178;11.566;2023-08-06T05:34:52;2.63;;;1.00;;
73670;SDS011;61968;48.178;11.566;2023-08-06T05:37:20;4.22;;;1.30;;
73670;SDS011;61968;48.178;11.566;2023-08-06T05:39:46;0.98;;;0.98;;
73670;SDS011;61968;48.178;11.566;2023-08-06T05:42:12;1.40;;;1.30;;
73670;SDS011;61968;48.178;11.566;2023-08-06T05:44:39;1.05;;;0.93;;
73670;SDS011;61968;48.178;11.566;2023-08-06T05:47:06;2.22;;;1.20;;
73670;SDS011;61968;48.178;11.566;2023-08-06T05:49:32;1.30;;;1.20;;
73670;SDS011;61968;48.178;11.566;2023-08-06T05:51:58;1.10;;;1.00;;
73670;SDS011;61968;48.178;11.566;2023-08-06T05:54:26;2.88;;;1.25;;
73670;SDS011;61968;48.178;11.566;2023-08-06T05:56:53;2.53;;;1.20;;
73670;SDS011;61968;48.178;11.566;2023-08-06T05:59:19;1.75;;;1.30;;
73670;SDS011;61968;48.178;11.566;2023-08-06T06:01:46;1.35;;;1.05;;
73670;SDS011;61968;48.178;11.566;2023-08-06T06:04:12;1.60;;;1.13;;
73670;SDS011;61968;48.178;11.566;2023-08-06T06:06:39;1.67;;;1.58;;
73670;SDS011;61968;48.178;11.566;2023-08-06T06:09:06;6.70;;;1.90;;
73670;SDS011;61968;48.178;11.566;2023-08-06T06:11:34;1.45;;;1.23;;
73670;SDS011;61968;48.178;11.566;2023-08-06T06:14:01;1.20;;;1.10;;
73670;SDS011;61968;48.178;11.566;2023-08-06T06:16:27;1.30;;;1.20;;
73670;SDS011;61968;48.178;11.566;2023-08-06T06:18:54;3.95;;;1.10;;
73670;SDS011;61968;48.178;11.566;2023-08-06T06:21:22;0.82;;;0.82;;
73670;SDS011;61968;48.178;11.566;2023-08-06T06:23:50;1.08;;;0.98;;
73670;SDS011;61968;48.178;11.566;2023-08-06T06:26:17;1.20;;;0.90;;
73670;SDS011;61968;48.178;11.566;2023-08-06T06:28:45;0.93;;;0.90;;
73670;SDS011;61968;48.178;11.566;2023-08-06T06:31:11;2.85;;;1.27;;
73670;SDS011;61968;48.178;11.566;2023-08-06T06:33:38;4.70;;;1.15;;
73670;SDS011;61968;48.178;11.566;2023-08-06T06:36:04;5.82;;;1.52;;
73670;SDS011;61968;48.178;11.566;2023-08-06T06:38:32;1.60;;;1.02;;
73670;SDS011;61968;48.178;11.566;2023-08-06T06:40:59;1.85;;;0.98;;
73670;SDS011;61968;48.178;11.566;2023-08-06T06:43:27;4.80;;;1.42;;
73670;SDS011;61968;48.178;11.566;2023-08-06T06:45:55;4.00;;;1.63;;
73670;SDS011;61968;48.178;11.566;2023-08-06T06:48:23;1.83;;;1.33;;
73670;SDS011;61968;48.178;11.566;2023-08-06T06:50:49;5.18;;;1.60;;
73670;SDS011;61968;48.178;11.566;2023-08-06T06:53:16;2.70;;;1.23;;
73670;SDS011;61968;48.178;11.566;2023-08-06T06:55:42;1.70;;;0.60;;
73670;SDS011;61968;48.178;11.566;2023-08-06T06:58:09;3.92;;;1.17;;
73670;SDS011;61968;48.178;11.566;2023-08-06T07:00:35;5.65;;;1.58;;
73670;SDS011;61968;48.178;11.566;2023-08-06T07:03:04;2.47;;;1.10;;
73670;SDS011;61968;48.178;11.566;2023-08-06T07:05:30;1.15;;;0.85;;
73670;SDS011;61968;48.178;11.566;2023-08-06T07:07:57;3.67;;;1.00;;
73670;SDS011;61968;48.178;11.566;2023-08-06T07:10:23;1.80;;;0.90;;
73670;SDS011;61968;48.178;11.566;2023-08-06T07:12:50;3.00;;;1.05;;
73670;SDS011;61968;48.178;11.566;2023-08-06T07:15:16;1.67;;;0.82;;
73670;SDS011;61968;48.178;11.566;2023-08-06T07:17:43;1.65;;;0.70;;
73670;SDS011;61968;48.178;11.566;2023-08-06T07:20:11;0.80;;;0.80;;
73670;SDS011;61968;48.178;11.566;2023-08-06T07:22:38;3.10;;;0.80;;
73670;SDS011;61968;48.178;11.566;2023-08-06T07:25:04;3.35;;;0.75;;
73670;SDS011;61968;48.178;11.566;2023-08-06T07:27:31;1.15;;;0.65;;
73670;SDS011;61968;48.178;11.566;2023-08-06T07:29:58;1.23;;;0.50;;
73670;SDS011;61968;48.178;11.566;2023-08-06T07:32:24;6.63;;;2.53;;
73670;SDS011;61968;48.178;11.566;2023-08-06T07:34:51;1.33;;;1.00;;
73670;SDS011;61968;48.178;11.566;2023-08-06T07:37:23;1.88;;;1.50;;
73670;SDS011;61968;48.178;11.566;2023-08-06T07:39:49;5.05;;;2.45;;
73670;SDS011;61968;48.178;11.566;2023-08-06T07:42:15;0.95;;;0.85;;
73670;SDS011;61968;48.178;11.566;2023-08-06T07:44:45;1.77;;;1.15;;
73670;SDS011;61968;48.178;11.566;2023-08-06T07:47:16;2.78;;;1.63;;
73670;SDS011;61968;48.178;11.566;2023-08-06T07:49:43;0.88;;;0.60;;
73670;SDS011;61968;48.178;11.566;2023-08-06T07:52:09;0.73;;;0.73;;
73670;SDS011;61968;48.178;11.566;2023-08-06T07:54:37;0.60;;;0.60;;
73670;SDS011;61968;48.178;11.566;2023-08-06T07:57:04;0.93;;;0.52;;
73670;SDS011;61968;48.178;11.566;2023-08-06T07:59:31;1.00;;;0.43;;
73670;SDS011;61968;48.178;11.566;2023-08-06T08:01:57;0.40;;;0.40;;
73670;SDS011;61968;48.178;11.566;2023-08-06T08:04:24;2.28;;;0.50;;
73670;SDS011;61968;48.178;11.566;2023-08-06T08:06:50;7.50;;;3.65;;
73670;SDS011;61968;48.178;11.566;2023-08-06T08:09:17;2.53;;;2.08;;
73670;SDS011;61968;48.178;11.566;2023-08-06T08:11:45;1.38;;;0.95;;
73670;SDS011;61968;48.178;11.566;2023-08-06T08:14:12;1.77;;;1.08;;
73670;SDS011;61968;48.178;11.566;2023-08-06T08:16:38;1.10;;;0.73;;
73670;SDS011;61968;48.178;11.566;2023-08-06T08:19:05;2.90;;;1.00;;
73670;SDS011;61968;48.178;11.566;2023-08-06T08:21:31;2.47;;;0.70;;
73670;SDS011;61968;48.178;11.566;2023-08-06T08:23:59;5.00;;;1.17;;
73670;SDS011;61968;48.178;11.566;2023-08-06T08:26:26;3.05;;;0.85;;
73670;SDS011;61968;48.178;11.566;2023-08-06T08:28:54;0.63;;;0.60;;
73670;SDS011;61968;48.178;11.566;2023-08-06T08:31:22;2.25;;;0.60;;
73670;SDS011;61968;48.178;11.566;2023-08-06T08:33:48;0.80;;;0.65;;
73670;SDS011;61968;48.178;11.566;2023-08-06T08:36:15;0.95;;;0.68;;
73670;SDS011;61968;48.178;11.566;2023-08-06T08:38:41;1.63;;;0.43;;
73670;SDS011;61968;48.178;11.566;2023-08-06T08:41:09;2.40;;;0.50;;
73670;SDS011;61968;48.178;11.566;2023-08-06T08:43:36;0.45;;;0.45;;
73670;SDS011;61968;48.178;11.566;2023-08-06T08:46:05;4.13;;;0.90;;
73670;SDS011;61968;48.178;11.566;2023-08-06T08:48:35;6.25;;;1.73;;
73670;SDS011;61968;48.178;11.566;2023-08-06T08:51:02;2.70;;;0.80;;
73670;SDS011;61968;48.178;11.566;2023-08-06T08:53:29;2.95;;;0.60;;
73670;SDS011;61968;48.178;11.566;2023-08-06T08:55:57;2.50;;;0.55;;
73670;SDS011;61968;48.178;11.566;2023-08-06T08:58:24;0.22;;;0.22;;
73670;SDS011;61968;48.178;11.566;2023-08-06T09:00:51;3.65;;;0.57;;
73670;SDS011;61968;48.178;11.566;2023-08-06T09:03:20;2.25;;;0.40;;
73670;SDS011;61968;48.178;11.566;2023-08-06T09:05:48;1.02;;;0.40;;
73670;SDS011;61968;48.178;11.566;2023-08-06T09:08:18;0.20;;;0.10;;
73670;SDS011;61968;48.178;11.566;2023-08-06T09:10:47;5.07;;;0.32;;
73670;SDS011;61968;48.178;11.566;2023-08-06T09:13:14;3.53;;;0.32;;
73670;SDS011;61968;48.178;11.566;2023-08-06T09:15:42;0.28;;;0.28;;
73670;SDS011;61968;48.178;11.566;2023-08-06T09:18:09;0.20;;;0.15;;
73670;SDS011;61968;48.178;11.566;2023-08-06T09:20:38;0.63;;;0.30;;
73670;SDS011;61968;48.178;11.566;2023-08-06T09:23:06;0.85;;;0.22;;
73670;SDS011;61968;48.178;11.566;2023-08-06T09:25:36;0.40;;;0.30;;
73670;SDS011;61968;48.178;11.566;2023-08-06T09:28:04;1.75;;;0.45;;
73670;SDS011;61968;48.178;11.566;2023-08-06T09:30:32;0.68;;;0.30;;
73670;SDS011;61968;48.178;11.566;2023-08-06T09:33:00;1.25;;;0.30;;
73670;SDS011;61968;48.178;11.566;2023-08-06T09:35:28;3.72;;;0.85;;
73670;SDS011;61968;48.178;11.566;2023-08-06T09:37:57;0.30;;;0.30;;
73670;SDS011;61968;48.178;11.566;2023-08-06T09:40:32;0.65;;;0.40;;
73670;SDS011;61968;48.178;11.566;2023-08-06T09:42:59;0.57;;;0.32;;
73670;SDS011;61968;48.178;11.566;2023-08-06T09:45:28;1.30;;;0.40;;
73670;SDS011;61968;48.178;11.566;2023-08-06T09:47:57;0.13;;;0.13;;
73670;SDS011;61968;48.178;11.566;2023-08-06T09:50:26;3.03;;;0.40;;
73670;SDS011;61968;48.178;11.566;2023-08-06T09:52:56;3.78;;;1.30;;
73670;SDS011;61968;48.178;11.566;2023-08-06T09:55:24;0.80;;;0.60;;
73670;SDS011;61968;48.178;11.566;2023-08-06T09:57:51;1.88;;;0.75;;
73670;SDS011;61968;48.178;11.566;2023-08-06T10:00:18;2.25;;;1.10;;
73670;SDS011;61968;48.178;11.566;2023-08-06T10:02:46;0.88;;;0.75;;
73670;SDS011;61968;48.178;11.566;2023-08-06T10:05:13;5.20;;;0.38;;
73670;SDS011;61968;48.178;11.566;2023-08-06T10:07:41;1.25;;;0.25;;
73670;SDS011;61968;48.178;11.566;2023-08-06T10:10:11;1.30;;;0.20;;
73670;SDS011;61968;48.178;11.566;2023-08-06T10:12:39;2.25;;;0.13;;
73670;SDS011;61968;48.178;11.566;2023-08-06T10:15:10;0.30;;;0.30;;
73670;SDS011;61968;48.178;11.566;2023-08-06T10:17:40;0.93;;;0.40;;
73670;SDS011;61968;48.178;11.566;2023-08-06T10:20:08;1.88;;;0.68;;
73670;SDS011;61968;48.178;11.566;2023-08-06T10:22:35;14.20;;;1.52;;
73670;SDS011;61968;48.178;11.566;2023-08-06T10:25:02;1.20;;;0.68;;
73670;SDS011;61968;48.178;11.566;2023-08-06T10:27:32;2.40;;;0.70;;
73670;SDS011;61968;48.178;11.566;2023-08-06T10:32:49;0.75;;;0.20;;
73670;SDS011;61968;48.178;11.566;2023-08-06T10:35:30;0.35;;;0.17;;
73670;SDS011;61968;48.178;11.566;2023-08-06T10:37:58;0.20;;;0.20;;
73670;SDS011;61968;48.178;11.566;2023-08-06T10:40:25;1.05;;;0.50;;
73670;SDS011;61968;48.178;11.566;2023-08-06T10:42:53;5.93;;;2.95;;
73670;SDS011;61968;48.178;11.566;2023-08-06T10:45:20;17.55;;;10.70;;
73670;SDS011;61968;48.178;11.566;2023-08-06T10:47:49;12.82;;;6.45;;
73670;SDS011;61968;48.178;11.566;2023-08-06T10:50:16;6.22;;;2.88;;
73670;SDS011;61968;48.178;11.566;2023-08-06T10:52:43;10.48;;;5.50;;
73670;SDS011;61968;48.178;11.566;2023-08-06T10:55:10;100.45;;;47.40;;
73670;SDS011;61968;48.178;11.566;2023-08-06T10:57:36;140.77;;;75.05;;
73670;SDS011;61968;48.178;11.566;2023-08-06T11:00:05;456.90;;;296.15;;
73670;SDS011;61968;48.178;11.566;2023-08-06T11:02:33;204.40;;;121.43;;
73670;SDS011;61968;48.178;11.566;2023-08-06T11:05:04;208.68;;;120.50;;
73670;SDS011;61968;48.178;11.566;2023-08-06T11:07:31;99.68;;;46.45;;
73670;SDS011;61968;48.178;11.566;2023-08-06T11:10:00;113.18;;;61.53;;
73670;SDS011;61968;48.178;11.566;2023-08-06T11:12:27;33.70;;;16.02;;
73670;SDS011;61968;48.178;11.566;2023-08-06T11:14:54;35.05;;;19.52;;
73670;SDS011;61968;48.178;11.566;2023-08-06T11:17:22;13.43;;;7.65;;
73670;SDS011;61968;48.178;11.566;2023-08-06T11:19:48;18.25;;;6.90;;
73670;SDS011;61968;48.178;11.566;2023-08-06T11:22:15;16.33;;;7.38;;
73670;SDS011;61968;48.178;11.566;2023-08-06T11:24:42;3.05;;;2.50;;
73670;SDS011;61968;48.178;11.566;2023-08-06T11:27:12;4.40;;;3.13;;
73670;SDS011;61968;48.178;11.566;2023-08-06T11:29:40;7.03;;;2.83;;
73670;SDS011;61968;48.178;11.566;2023-08-06T11:32:06;6.30;;;1.80;;
73670;SDS011;61968;48.178;11.566;2023-08-06T11:34:35;0.85;;;0.85;;
73670;SDS011;61968;48.178;11.566;2023-08-06T11:37:02;4.20;;;1.67;;
73670;SDS011;61968;48.178;11.566;2023-08-06T11:39:30;0.47;;;0.47;;
73670;SDS011;61968;48.178;11.566;2023-08-06T11:41:57;3.15;;;1.02;;
73670;SDS011;61968;48.178;11.566;2023-08-06T11:44:25;8.20;;;4.65;;
73670;SDS011;61968;48.178;11.566;2023-08-06T11:46:52;24.38;;;9.82;;
73670;SDS011;61968;48.178;11.566;2023-08-06T11:49:21;10.90;;;7.00;;
73670;SDS011;61968;48.178;11.566;2023-08-06T11:52:08;10.60;;;5.80;;
73670;SDS011;61968;48.178;11.566;2023-08-06T11:54:36;5.32;;;3.67;;
73670;SDS011;61968;48.178;11.566;2023-08-06T11:57:03;6.88;;;1.13;;
73670;SDS011;61968;48.178;11.566;2023-08-06T11:59:31;0.20;;;0.20;;
73670;SDS011;61968;48.178;11.566;2023-08-06T12:01:57;2.67;;;0.65;;
73670;SDS011;61968;48.178;11.566;2023-08-06T12:04:24;3.45;;;0.70;;
73670;SDS011;61968;48.178;11.566;2023-08-06T12:06:50;0.45;;;0.30;;
73670;SDS011;61968;48.178;11.566;2023-08-06T12:09:19;3.42;;;1.20;;
73670;SDS011;61968;48.178;11.566;2023-08-06T12:11:46;0.63;;;0.40;;
73670;SDS011;61968;48.178;11.566;2023-08-06T12:14:13;4.18;;;0.73;;
73670;SDS011;61968;48.178;11.566;2023-08-06T12:16:39;0.95;;;0.50;;
73670;SDS011;61968;48.178;11.566;2023-08-06T12:19:06;6.85;;;1.00;;
73670;SDS011;61968;48.178;11.566;2023-08-06T12:21:32;1.13;;;0.60;;
73670;SDS011;61968;48.178;11.566;2023-08-06T12:23:59;1.45;;;0.32;;
73670;SDS011;61968;48.178;11.566;2023-08-06T12:26:27;0.00;;;0.00;;
73670;SDS011;61968;48.178;11.566;2023-08-06T12:28:53;0.65;;;0.13;;
73670;SDS011;61968;48.178;11.566;2023-08-06T12:31:22;0.20;;;0.10;;
73670;SDS011;61968;48.178;11.566;2023-08-06T12:33:49;0.93;;;0.20;;
73670;SDS011;61968;48.178;11.566;2023-08-06T12:36:15;0.20;;;0.20;;
73670;SDS011;61968;48.178;11.566;2023-08-06T12:38:41;1.13;;;0.10;;
73670;SDS011;61968;48.178;11.566;2023-08-06T12:41:08;0.20;;;0.10;;
73670;SDS011;61968;48.178;11.566;2023-08-06T12:43:36;6.32;;;0.68;;
73670;SDS011;61968;48.178;11.566;2023-08-06T12:46:03;9.45;;;6.38;;
73670;SDS011;61968;48.178;11.566;2023-08-06T12:48:29;4.90;;;2.55;;
73670;SDS011;61968;48.178;11.566;2023-08-06T12:50:55;6.32;;;1.55;;
73670;SDS011;61968;48.178;11.566;2023-08-06T12:53:22;1.75;;;0.63;;
73670;SDS011;61968;48.178;11.566;2023-08-06T12:55:48;0.90;;;0.38;;
73670;SDS011;61968;48.178;11.566;2023-08-06T12:58:15;6.95;;;1.10;;
73670;SDS011;61968;48.178;11.566;2023-08-06T13:00:43;4.68;;;1.30;;
73670;SDS011;61968;48.178;11.566;2023-08-06T13:03:09;1.40;;;0.70;;
73670;SDS011;61968;48.178;11.566;2023-08-06T13:05:36;0.60;;;0.60;;
73670;SDS011;61968;48.178;11.566;2023-08-06T13:08:02;0.40;;;0.20;;
73670;SDS011;61968;48.178;11.566;2023-08-06T13:10:29;6.32;;;1.17;;
73670;SDS011;61968;48.178;11.566;2023-08-06T13:12:56;1.08;;;0.22;;
73670;SDS011;61968;48.178;11.566;2023-08-06T13:15:22;2.03;;;0.30;;
73670;SDS011;61968;48.178;11.566;2023-08-06T13:17:50;2.72;;;1.20;;
73670;SDS011;61968;48.178;11.566;2023-08-06T13:20:17;0.40;;;0.40;;
73670;SDS011;61968;48.178;11.566;2023-08-06T13:22:44;0.20;;;0.20;;
73670;SDS011;61968;48.178;11.566;2023-08-06T13:25:11;1.08;;;0.30;;
73670;SDS011;61968;48.178;11.566;2023-08-06T13:27:39;1.17;;;0.75;;
73670;SDS011;61968;48.178;11.566;2023-08-06T13:30:06;0.25;;;0.13;;
73670;SDS011;61968;48.178;11.566;2023-08-06T13:32:34;3.00;;;0.45;;
73670;SDS011;61968;48.178;11.566;2023-08-06T13:35:03;13.82;;;6.18;;
73670;SDS011;61968;48.178;11.566;2023-08-06T13:37:30;36.25;;;18.40;;
73670;SDS011;61968;48.178;11.566;2023-08-06T13:39:59;34.85;;;14.73;;
73670;SDS011;61968;48.178;11.566;2023-08-06T13:42:26;4.72;;;3.35;;
73670;SDS011;61968;48.178;11.566;2023-08-06T13:44:53;1.67;;;1.25;;
73670;SDS011;61968;48.178;11.566;2023-08-06T13:47:24;7.80;;;2.40;;
73670;SDS011;61968;48.178;11.566;2023-08-06T13:49:51;8.40;;;4.20;;
73670;SDS011;61968;48.178;11.566;2023-08-06T13:52:18;12.65;;;5.13;;
73670;SDS011;61968;48.178;11.566;2023-08-06T13:54:45;4.20;;;3.00;;
73670;SDS011;61968;48.178;11.566;2023-08-06T13:57:11;13.32;;;7.13;;
73670;SDS011;61968;48.178;11.566;2023-08-06T13:59:38;18.67;;;10.52;;
73670;SDS011;61968;48.178;11.566;2023-08-06T14:02:04;3.60;;;2.40;;
73670;SDS011;61968;48.178;11.566;2023-08-06T14:04:31;6.65;;;3.85;;
73670;SDS011;61968;48.178;11.566;2023-08-06T14:06:57;8.23;;;4.47;;
73670;SDS011;61968;48.178;11.566;2023-08-06T14:09:25;11.40;;;8.07;;
73670;SDS011;61968;48.178;11.566;2023-08-06T14:11:52;7.30;;;3.83;;
73670;SDS011;61968;48.178;11.566;2023-08-06T14:14:18;3.45;;;2.75;;
73670;SDS011;61968;48.178;11.566;2023-08-06T14:16:51;8.43;;;2.88;;
73670;SDS011;61968;48.178;11.566;2023-08-06T14:19:17;10.70;;;7.53;;
73670;SDS011;61968;48.178;11.566;2023-08-06T14:21:44;14.43;;;2.33;;
73670;SDS011;61968;48.178;11.566;2023-08-06T14:24:10;21.50;;;12.43;;
73670;SDS011;61968;48.178;11.566;2023-08-06T14:26:38;38.75;;;20.65;;
73670;SDS011;61968;48.178;11.566;2023-08-06T14:29:05;31.55;;;15.90;;
73670;SDS011;61968;48.178;11.566;2023-08-06T14:31:31;28.05;;;13.65;;
73670;SDS011;61968;48.178;11.566;2023-08-06T14:33:58;6.35;;;3.75;;
73670;SDS011;61968;48.178;11.566;2023-08-06T14:36:25;9.52;;;3.08;;